Éco Trail de Paris 2018 : Tous les Résultats

Emmanuel Meyssat ajoute une nouvelle victoire à son palmarès en s'imposant sur l'Éco trail de Paris 2018. Découvrez les classements des différentes épreuves de l'événement du week-end.

Crédit Photo : Route 109
Crédit Photo : Route 109

6 jours après sa belle 7ème place au scratch (4ème français) aux Championnats de France de Cross à Plouay, Emmanuel Meyssat, double vainqueur de la SaintéLyon, ajoute une nouvelle victoire à son palmarès en s’imposant sur le 80 km de l’Éco Trail de Paris.

Le Rhodanien a franchi la ligne d’arrivée au premier étage de la Tour Eiffel avec 5 minutes d’avance sur son premier concurrent.

4 courses au total : 80 km / 45 km / 30 km / 18 km


 

Classement Général 80 KM

 

1 8 Emmanuel MEYSSAT AC TASSIN SE H 1 06:00:59 00:00:00 FRA (France)
2 1 Emmanuel GAULT ON RUNNING/ I-RUN V1 H 1 06:05:07 00:04:08 FRA (France)
3 2 Didrik HERMANSEN Asics/Camelbak SE H 2 06:15:20 00:14:21 NOR (Norvège)
4 1604 Andris RONIMOISS Isostar / Inov8 / OSveikals.lv SE H 3 06:16:02 00:15:03 LAT (Lettonie)
5 5 Yoann STUCK Town to Trail SE H 4 06:16:48 00:15:49 FRA (France)
6 2515 Vincent GUIVARCH SE H 5 06:29:24 00:28:25 FRA (France)
7 1215 Laurent MARQUIS AC Veules SE H 6 06:42:30 00:41:31 FRA (France)
8 2124 Bertrand COLLOMB-PATTON Caen Athlétic club V1 H 2 06:42:49 00:41:50 FRA (France)
9 2539 Jarle RISA Undheim IL V1 H 3 06:46:33 00:45:34 NOR (Norvège)
10 437 Guillaume TIREL ACCRORUN VILLEPREUX SE H 7 06:46:46 00:45:47 FRA (France)
11 7 Thomas CARDIN Taillefer Trail Team SE H 8 06:48:46 00:47:47 FRA (France)
12 981 Fabrice LE CALVEZ SE H 9 06:49:05 00:48:06 FRA (France)
13 1910 Gilles KLIPFEL US Palaiseau Triathlon SE H 10 06:53:00 00:52:01 FRA (France)
14 560 Alexandre BOUCHEIX SE H 11 06:54:09 00:53:10 FRA (France)
15 2399 Ludovic DILMI COURSE ORGANISATION – XTREM Trail V2 H 1 07:03:18 01:02:19 FRA (France)
16 1749 Nicolas SCHRAPP Pérols Footing V1 H 4 07:03:19 01:02:20 FRA (France)
17 2052 Ludovic LERALLU Crazy Team United (CTU) SE H 12 07:05:08 01:04:09 FRA (France)
18 760 Anthony PIPITONE SE H 13 07:08:05 01:07:06 FRA (France)
19 2100 Thomas SAINT GIRONS ALES CEVENNES ATHLETISME V1 H 5 07:11:17 01:10:18 FRA (France)
20 521 Alexandre HUNO Team Trail Paris SE H 14 07:13:55 01:12:56 FRA (France)
21 2295 Sebastien BOUSQUET ACA TEAM MENDEZ V1 H 6 07:15:12 01:14:13 FRA (France)
22 882 Yann KITZEROW Terre de Running Antony V1 H 7 07:15:48 01:14:49 FRA (France)
23 1718 Freddy PRIGENT LTA Morlaix SE H 15 07:15:58 01:14:59 FRA (France)
24 2508 Adrien CHOUCHOU ALES CEVENNES ATHLETISME SE H 16 07:16:27 01:15:28 FRA (France)
25 2486 Romain ROTH DIT BETTONI YERRES AC SE H 17 07:21:09 01:20:10 FRA (France)
26 965 Brice BOYER UA Société Générale SE H 18 07:21:32 01:20:33 FRA (France)
27 1916 Pierre-Marie GUILLOU SE H 19 07:23:27 01:22:28 FRA (France)
28 1463 David LANDAU V1 H 8 07:25:24 01:24:25 FRA (France)
29 1994 Jocelyn COUTTE ENA (asg gauchy) SE H 20 07:26:36 01:25:37 FRA (France)
30 2132 Baptiste GRIGY ANTONY TRIATHLON V1 H 9 07:33:34 01:32:35 FRA (France)
31 1376 Charles SEGARD Issy Triathlon V1 H 10 07:34:28 01:33:29 FRA (France)
32 2310 Gaelle DECORSE Asptt clermont ferrand ES F 1 07:34:41 01:33:42 FRA (France)
33 10 Sylvaine CUSSOT Asics / Ca Balma/ i-Run SE F 1 07:34:42 01:33:43 FRA (France)
34 865 Claire BANNWARTH SE F 2 07:36:17 01:35:18 FRA (France)
35 2321 Cyril GAUTRON As-bripp SE H 21 07:36:38 01:35:39 FRA (France)
36 1188 Emmanuel LEFAY ASPTT AUXERRE SE H 22 07:36:57 01:35:58 FRA (France)
37 764 Patrick ARCE Courir à Beaucaire SE H 23 07:38:16 01:37:17 FRA (France)
38 904 Mathieu LION SE H 24 07:39:27 01:38:28 FRA (France)
39 1101 Fabrice LE QUERRE ccr92 V1 H 11 07:40:46 01:39:47 FRA (France)
40 256 Geoffrey HERBERT SE H 25 07:44:01 01:43:02 FRA (France)
41 1438 Thomas FEYTIT REBATTET SE H 26 07:44:17 01:43:18 FRA (France)
42 638 Marc BETHUEL YPRL St Cyr Triathlon V1 H 12 07:44:40 01:43:41 FRA (France)
43 2097 Nicolas RONDEAU TERRE DE RUNNING ANTONY SE H 27 07:44:45 01:43:46 FRA (France)
44 957 Nicolas GRANJON ESL Francheville SE H 28 07:45:06 01:44:07 FRA (France)
45 2208 Jérôme COURONNEL Touquet trail nature V1 H 13 07:45:21 01:44:22 FRA (France)
46 169 Luiz MOTA Esporao trail Portugal V1 H 14 07:45:44 01:44:45 FRA (France)
47 397 Walid PINCON Team Trail Paris SE H 29 07:46:02 01:45:03 FRA (France)
48 2531 Matthieu THEVENIN SE H 30 07:47:00 01:46:01 FRA (France)
49 746 Thomas BRADU ACF Alstom SE H 31 07:48:14 01:47:15 FRA (France)
50 1801 Nicolas VANTHUYNE V1 H 15 07:48:34 01:47:35 FRA (France)
51 2071 Alexandre BALESTRERI SE H 32 07:48:52 01:47:53 FRA (France)
52 253 Vincent BOTHEREAU UA SOCIETE GENERALE V1 H 16 07:50:44 01:49:45 FRA (France)
53 1817 Thibault DEFRANCE defi outdoor V1 H 17 07:53:06 01:52:07 FRA (France)
54 2073 Michael LEMOINE SE H 33 07:53:25 01:52:26 FRA (France)
55 2560 Jerome RAMA V1 H 18 07:53:56 01:52:57 FRA (France)
56 362 Franck NOWICKI passpartout trailer du josas V1 H 19 07:55:48 01:54:49 FRA (France)
57 167 Yann LE RAY CARQ V1 H 20 07:56:46 01:55:47 FRA (France)
58 1933 Kevin ROBERT ACF ALSTOM SE H 34 07:57:33 01:56:34 FRA (France)
59 1960 Frank GUILLON CJF Fleury les aubrais V1 H 21 07:57:49 01:56:50 FRA (France)
60 1699 Reinhard GALLOVITS V1 H 22 07:57:52 01:56:53 AUT (Autriche)
61 136 Ludovic MARCHAND UAI NOGENT SUR MARNE V1 H 23 07:58:11 01:57:12 FRA (France)
62 2543 Olivier LAURENT V1 H 24 07:59:52 01:58:53 FRA (France)
63 2511 Ramon CASANOVAS SE H 35 08:00:22 01:59:23 SUI (Suisse)
64 1015 Kevin MANCHON Cap Coignières SE H 36 08:00:23 01:59:24 FRA (France)
65 2137 Alexandre BILLAUD Entente Poitiers Athlétisme 86 SE H 37 08:00:58 01:59:59 FRA (France)
66 683 Guillaume DAVIN XRUN V2 H 2 08:01:29 02:00:30 FRA (France)
67 791 Stephane RENOULT AC Veules SE H 38 08:03:17 02:02:18 FRA (France)
68 846 Vincent NANCEY tos athlétisme V1 H 25 08:03:41 02:02:42 FRA (France)
69 1770 Francis PELMONT CAF Oisans V2 H 3 08:04:11 02:03:12 FRA (France)
70 1862 Antoine MIEL SE H 39 08:04:28 02:03:29 FRA (France)
71 2018 Romuald GERARD Team Foulées OGR60 SE H 40 08:05:44 02:04:45 FRA (France)
72 2525 Dominik ERNE Tristhlon club de genève SE H 41 08:07:29 02:06:30 SUI (Suisse)
73 953 Pierre LE PADELLEC SE H 42 08:07:30 02:06:31 FRA (France)
74 1795 Frédéric BARBE V1 H 26 08:08:17 02:07:18 FRA (France)
75 455 Cyril SAROBERT Team sarobert V1 H 27 08:09:20 02:08:21 FRA (France)
76 2192 David BOULANGER Touquet Trail Nature V1 H 28 08:11:19 02:10:20 FRA (France)
77 911 Vincent VIRLICHIE V1 H 29 08:11:35 02:10:36 FRA (France)
78 2289 Mohamed MAHMOUDI V1 H 30 08:11:40 02:10:41 FRA (France)
79 13 Didier SUBILEAU Xtrem Running Trail V1 H 31 08:11:44 02:10:45 FRA (France)
80 123 Eric MINAUX V1 H 32 08:12:52 02:11:53 FRA (France)
80 2292 Philippe MEDARD V2 H 4 08:12:52 02:11:53 FRA (France)
82 2227 Sebastien CELERIER pom’sy SE H 43 08:13:04 02:12:05 FRA (France)
83 1744 Aurelien AGNELLET Poissy SE H 44 08:13:07 02:12:08 FRA (France)
84 475 Philippe LE BOT École de Guerre – Paris SE H 45 08:13:18 02:12:19 FRA (France)
84 902 Pierre Yves LE GALL Écume cleder SE H 46 08:13:18 02:12:19 FRA (France)
86 2002 Lionel GOMES ARANTES DOMONT ATHLETISME V1 H 33 08:13:24 02:12:25 FRA (France)
87 1880 Benoit RIO SE H 47 08:13:50 02:12:51 FRA (France)
88 1913 Cyril TOUCHARD SERBOUTI RUN V1 H 34 08:13:57 02:12:58 FRA (France)
89 324 Yoann ROSE TOWN TO TRAIL SE H 48 08:14:12 02:13:13 FRA (France)
90 2118 Vincent LE GUERN V2 H 5 08:14:17 02:13:18 FRA (France)
91 708 Yannick CLARIS Les Trailers de Paris SE H 49 08:14:21 02:13:22 FRA (France)
92 161 Samuel DERIEZ GRANGER Championnet sport SE H 50 08:14:30 02:13:31 FRA (France)
93 2567 Francesca CANEPA MontBlancTeam V1 F 1 08:15:55 02:14:56 ITA (Italie)
94 1961 Quentin GUILLOU Brest triathlon SE H 51 08:16:06 02:15:07 FRA (France)
95 2461 Paul DE CARVALHO US olympique de Chelles V1 H 35 08:16:19 02:15:20 FRA (France)
96 2081 François GIRAUD TAILLEFER TRAIL TEAM V1 H 36 08:16:20 02:15:21 FRA (France)
97 1855 Arnaud ROUSSELET SE H 52 08:16:23 02:15:24 FRA (France)
98 2540 Luca PAPI WAA team SE H 53 08:16:26 02:15:27 ITA (Italie)
99 2034 Fabien ETALON V1 H 37 08:17:31 02:16:32 FRA (France)
100 956 Laurent CHAIGNEAU Free Runners Le Club SE H 54 08:17:46 02:16:47 FRA (France)

 

Classement Complet

 

Classement 45 KM

1 4065 Bertrand GENCE Vac SE H 1 03:10:49 00:00:00 FRA (France)
2 5514 Nicolas BOUVIER-GAZ TEAM NEW BALANCE/Esclops d’azun SE H 2 03:11:50 00:01:01 FRA (France)
3 4023 Mikel BESORA SUSANO INDEPENDIENTE SE H 3 03:14:56 00:04:07 ESP (Espagne)
4 4583 Eric MATEOS Plessis Robinson AC SE H 4 03:19:24 00:08:35 FRA (France)
5 4615 Jérémy MARIE SE H 5 03:24:55 00:14:06 FRA (France)
5 4748 Paul OGIER Naitup Hoka one one SE H 6 03:24:55 00:14:06 FRA (France)
7 5607 Yoan DERCOURT team trace de trail SE H 7 03:25:00 00:14:11 FRA (France)
8 4117 Raphael HOGUET SE H 8 03:28:10 00:17:21 FRA (France)
9 5512 Arnaud GUERY ATHLE 91 VIRY V1 H 1 03:28:46 00:17:57 FRA (France)
10 4724 Didier AUTUGELLE V1 H 2 03:31:39 00:20:50 FRA (France)
11 5825 Yvonnick TAUDON AS VALEO VISION SE H 9 03:31:43 00:20:54 FRA (France)
12 5432 Maxime LELONG SE H 10 03:34:09 00:23:20 FRA (France)
13 5282 Damien CLOAREC Fartleck V1 H 3 03:35:04 00:24:15 FRA (France)
14 5062 Fx LE MOINE SE H 11 03:35:21 00:24:32 FRA (France)
15 4285 Jimmy PANOZZO RRunLyon SE H 12 03:36:10 00:25:21 FRA (France)
16 5813 Luc GENTIAL SE H 13 03:37:05 00:26:16 FRA (France)
17 5811 Fabrice ARNAUD LFA TRETS / ENDURANCESHOP 13 SE H 14 03:39:19 00:28:30 FRA (France)
18 5700 Raphaël PAPAZIAN Trail Athlitude Cuers SE H 15 03:39:54 00:29:05 FRA (France)
19 5423 Stephane FEJEAN VERBERIE ENDURANCE ROUTE TRAIL V1 H 4 03:40:09 00:29:20 FRA (France)
20 5697 Jean-Baptiste DELARUELLE SE H 16 03:40:16 00:29:27 FRA (France)
21 5794 Anthony DIOU ASPTT 36 Sports Natrure SE H 17 03:40:21 00:29:32 FRA (France)
22 5635 Dominique BORDET olympique grande synthe athlé V2 H 1 03:40:31 00:29:42 FRA (France)
23 4745 Yves CADIO Xrun V2 H 2 03:40:56 00:30:07 FRA (France)
24 5453 Guilhem TABARLY SE H 18 03:41:18 00:30:29 FRA (France)
25 5729 Jennifer LEMOINE SE F 1 03:41:27 00:30:38 FRA (France)
26 4524 Gaëtan CLERC CO Fleurines V1 H 5 03:42:52 00:32:03 FRA (France)
27 4391 Jerome DEPIERRE CS TERNES PARIS OUEST SE H 19 03:42:54 00:32:05 FRA (France)
28 5124 Lucas GOETZ ultraendurance.ch V1 H 6 03:43:31 00:32:42 SUI (Suisse)
29 5056 Alban BUSNEL SE H 20 03:46:14 00:35:25 FRA (France)
30 4559 Samuel BARD TEAM TRAIL PARIS SE H 21 03:47:54 00:37:05 FRA (France)
31 5753 Jonathan METGE GARMIN FRANCE SE H 22 03:47:55 00:37:06 FRA (France)
32 4646 Etienne DE TERRASSON Les Moustiques V1 H 7 03:50:28 00:39:39 FRA (France)
33 4633 Alain BRONDEAU VO2 RIVES DE SEINE V1 H 8 03:51:34 00:40:45 FRA (France)
34 5749 Benedict CELESTIN DEVENDRA ASC BNP Paribs Paris SE H 23 03:51:42 00:40:53 FRA (France)
35 4661 Clément CHANEL Thales Communications Triathlon SE H 24 03:52:44 00:41:55 FRA (France)
36 5781 David DECAESTEKER V1 H 9 03:52:45 00:41:56 FRA (France)
37 4114 Yann JAOUEN SE H 25 03:52:47 00:41:58 FRA (France)
38 4484 Erwann KERMANAC’H V2 H 3 03:52:51 00:42:02 FRA (France)
39 4047 Jean-François SOUCHU les etoiles du 8eme V2 H 4 03:53:07 00:42:18 FRA (France)
40 5171 Antoine MARGUERY ES H 1 03:53:43 00:42:54 FRA (France)
41 5006 Nicolas COULON V1 H 10 03:54:11 00:43:22 FRA (France)
42 5504 Cyril BLANCHARD nogent sur oise athlé V1 H 11 03:54:51 00:44:02 FRA (France)
43 5005 Thomas COULON V1 H 12 03:54:54 00:44:05 FRA (France)
44 5684 Nicolas BOLUT Usdem SE H 26 03:56:40 00:45:51 FRA (France)
45 4337 Quentin MONMERT SE H 27 03:56:43 00:45:54 FRA (France)
46 4138 Sylvie QUITTOT ES RENAULT V1 F 1 03:56:44 00:45:55 FRA (France)
47 4573 Vincent RABEC OPTIMASPORT SOLUTIONS V1 H 13 03:57:29 00:46:40 FRA (France)
48 5266 Dominique CAROFF AS Tourlaville V1 H 14 03:57:59 00:47:10 FRA (France)
49 5575 Alexis QUIOT V1 H 15 03:58:06 00:47:17 FRA (France)
50 4338 Arnaud BORDESSOULLES V1 H 16 03:58:42 00:47:53 FRA (France)
51 5797 Quentin BERTRAND SE H 28 03:58:43 00:47:54 FRA (France)
52 4046 Bruno RODDE V1 H 17 03:58:52 00:48:03 FRA (France)
53 4920 Julien DEVEVEY Xrun club SE H 29 03:59:03 00:48:14 FRA (France)
54 4490 Thomas GALLIANO SE H 30 03:59:16 00:48:27 FRA (France)
55 5268 Ludovic KREHL poissy triathlon V1 H 18 03:59:42 00:48:53 FRA (France)
56 4129 Emmanuel PERNOT V1 H 19 03:59:55 00:49:06 FRA (France)
56 5396 Henri PROCUREUR SE H 31 03:59:55 00:49:06 FRA (France)
58 4750 Frédéric LE JACQ Free Runners V1 H 20 04:01:00 00:50:11 FRA (France)
59 5709 Pierre-Marie GOMMENDY SE H 32 04:01:02 00:50:13 FRA (France)
60 4475 Julien SCHIPMAN SE H 33 04:01:08 00:50:19 FRA (France)
61 5783 Helder FERNANDES SE H 34 04:01:27 00:50:38 POR (Portugal)
62 4619 Vincent LEPICARD V1 H 21 04:01:36 00:50:47 FRA (France)
63 5723 Benjamin GUERY Saone mont d’or nature SE H 35 04:01:46 00:50:57 FRA (France)
64 4736 Mathieu SUAREZ Adidas Runners Batignolles SE H 36 04:02:22 00:51:33 FRA (France)
65 5384 Stephane TLOUZEAU VAUX LE PENIL ATHLETISME V1 H 22 04:02:52 00:52:03 FRA (France)
66 4945 Axel BLANCON Chessy triathlon val d’europe SE H 37 04:03:36 00:52:47 FRA (France)
67 5545 Rudy ROMAIN SE H 38 04:04:15 00:53:26 FRA (France)
67 5750 David JOUVIN As blacourt SE H 39 04:04:15 00:53:26 FRA (France)
69 5627 Gael VALLAT DEFI OUTDOOR SE H 40 04:04:24 00:53:35 FRA (France)
70 4476 Jérémy FRANCISCO Nogent Solidarité Triathlon SE H 41 04:04:49 00:54:00 FRA (France)
71 5565 Daniel RUET Nogent solidarité triathlon SE H 42 04:05:07 00:54:18 FRA (France)
72 4095 Arthur DIACRE SE H 43 04:05:48 00:54:59 FRA (France)
73 5014 Alexandre BIZON stade français SE H 44 04:05:58 00:55:09 FRA (France)
74 4651 Frederick ROCHETTE Xrun V1 H 23 04:06:19 00:55:30 FRA (France)
75 5790 Pierre LEGRAND Synchrotron SOLEIL V1 H 24 04:06:25 00:55:36 FRA (France)
76 4096 Edouard VILLAUDY SE H 45 04:06:31 00:55:42 FRA (France)
78 4769 Benoit BELZUNCE Issy Triathlon SE H 46 04:06:50 00:56:01 FRA (France)
79 4855 Philippe MARIE-ANNE SE H 47 04:08:45 00:57:56 FRA (France)
80 4594 Norbert POINTU yapas V1 H 26 04:08:54 00:58:05 FRA (France)
81 4663 Gilles BERGERON V2 H 5 04:09:16 00:58:27 FRA (France)
82 5501 Jean-Charles BARBARY SE H 48 04:09:19 00:58:30 FRA (France)
83 4091 Nicolas DETANTE Triathlon Sannois Franconville SE H 49 04:09:23 00:58:34 FRA (France)
84 4182 Arnaud LEGUENNEC Le Plessis Robinson (92) SE H 50 04:09:49 00:59:00 FRA (France)
85 5735 Romain GUIGNARD SM MONTROUGE SE H 51 04:10:34 00:59:45 FRA (France)
86 4318 Luis CANTEIRO Esporao trail Portugal V1 H 27 04:10:35 00:59:46 FRA (France)
87 4968 Thomas PUAUD SE H 52 04:10:41 00:59:52 FRA (France)
88 5628 Brahim ABDELHAMID SE H 53 04:10:42 00:59:53 FRA (France)
89 5792 Yves KERVADEC V2 H 6 04:11:19 01:00:30 FRA (France)
90 5334 Lionel CAYLAT V1 H 28 04:11:24 01:00:35 FRA (France)
91 5458 Xavier BOSGIRAUD V1 H 29 04:11:29 01:00:40 FRA (France)
92 4557 Hervé DISARBOIS UA VERSAILLES V1 H 30 04:11:33 01:00:44 FRA (France)
93 4943 Damien LABRY UASG SE H 54 04:11:45 01:00:56 FRA (France)
93 4944 Florian LABRY UA Société Générale SE H 55 04:11:45 01:00:56 FRA (France)
95 4460 Cyrille LECUREUIL Alpes Mancelles Athlé V1 H 31 04:11:46 01:00:57 FRA (France)
96 5086 Damien LE NEILLON CS HISPANO SUIZA SE H 56 04:11:50 01:01:01 FRA (France)
97 4851 Thomas HEBERT SE H 57 04:11:59 01:01:10 FRA (France)
98 4365 Antoine BESSON SE H 58 04:12:29 01:01:40 FRA (France)
98 4685 Laurent JEAN UA SOCIETE GENERALE SE H 59 04:12:29 01:01:40 FRA (France)
100 5321 Matthieu TANGUY SE H 60 04:13:13 01:02:24 FRA (France)
101 4896 Jerome THEBAULT V2 H 7 04:13:22 01:02:33 FRA (France)

 

Classement 30 KM 

1 8008 Romain ANGLADE AC Auterivain SE H 1 01:58:16.75 00:00:00.00 FRA (France)
2 6497 Marc LOZANO EFCVO SE H 2 01:58:19.13 00:00:02.38 FRA (France)
3 9097 Romuald BRUN SE H 3 02:00:16.40 00:01:59.65 FRA (France)
4 8946 Erwan LATUS SE H 4 02:00:16.50 00:01:59.75 FRA (France)
5 7046 David AGOGUET NEW BALANCE/M.A.R.C SE H 5 02:00:30.91 00:02:14.16 FRA (France)
6 6867 Pierre GAPIHAN BigBigTeam SE H 6 02:00:40.99 00:02:24.24 FRA (France)
7 9029 Alexis VALTAT TEAM TRAIL PARIS SE H 7 02:01:00.64 00:02:43.89 FRA (France)
8 7014 Benoît GANDELOT TEAM OUTDOOR POLI V1 H 1 02:03:17.61 00:05:00.86 FRA (France)
9 6097 Camille BELSOEUR SE H 8 02:03:22.81 00:05:06.06 FRA (France)
10 6635 Nicolas DUHAIL TEAM OUTDOOR POLI SE H 9 02:04:25.19 00:06:08.44 FRA (France)
11 8313 Joel DUCROT NEUILLY SUR MARNE ATHLETISME SE H 10 02:06:51.35 00:08:34.60 FRA (France)
12 6316 Jacques GUIVARCH SE H 11 02:07:56.95 00:09:40.20 FRA (France)
13 7971 Stuart FARMER Fulham Running Club V1 H 2 02:08:47.98 00:10:31.23 GBR (Royaume-Uni)
14 8350 Xavier DORVEAUX SE H 12 02:09:08.93 00:10:52.18 FRA (France)
15 9028 Pierre-Jean BESSON TEAM TRAIL PARIS SE H 13 02:09:42.91 00:11:26.16 FRA (France)
16 7015 Frederic GABRY SE H 14 02:10:19.14 00:12:02.39 FRA (France)
17 9027 Samuel URTADO TEAM TRAIL PARIS SE H 15 02:11:10.95 00:12:54.20 FRA (France)
18 7102 Julien CONAN Athletic Crew – BZH SE H 16 02:11:23.26 00:13:06.51 FRA (France)
19 6990 Jonathan MATHIEU CS hispano-suiza SE H 17 02:12:13.00 00:13:56.25 FRA (France)
20 6928 Steve JAKOPIC Plessis Robinson Athletic Club SE H 18 02:12:14.45 00:13:57.70 FRA (France)
21 8734 Benjamin KERVEVEVAN WAA ULTRA / SOBHI SPORT VANNES SE H 19 02:14:56.56 00:16:39.81 FRA (France)
22 8998 Chrristian SIEGELE SE H 20 02:15:13.81 00:16:57.06 AUT (Autriche)
23 8681 Samuel CLERGEAUD CHANTILLY ATHLETISME V1 H 3 02:16:02.55 00:17:45.80 FRA (France)
24 8321 José-Luis LOPEZ TEAM BOUTIQUE MARATHON V1 H 4 02:16:04.05 00:17:47.30 FRA (France)
25 8626 Clement HELIER SE H 21 02:16:10.98 00:17:54.23 FRA (France)
26 8280 Julien LAGOUTTE US Palaiseau SE H 22 02:16:41.16 00:18:24.41 FRA (France)
27 6205 Rémy DEVISCH SE H 23 02:18:06.89 00:19:50.14 FRA (France)
28 7400 Matthieu DEVILLE CAVELLIN SE H 24 02:18:43.07 00:20:26.32 FRA (France)
29 9081 Alexis BEZADA UA SOCIETE GENERALE V1 H 5 02:18:57.86 00:20:41.11 FRA (France)
30 8015 Guilhem PELLET SE H 25 02:19:17.97 00:21:01.22 FRA (France)
31 7758 Antoine DAVOST Decathlon Albertville SE H 26 02:19:20.92 00:21:04.17 FRA (France)
32 7039 Frédéric SAVAJOL PLM CONFLANS SE H 27 02:19:25.29 00:21:08.54 FRA (France)
33 7859 Julien NIORD SE H 28 02:19:53.21 00:21:36.46 FRA (France)
34 7031 Camille PITEL ACBB TRIATHLON SE H 29 02:19:56.00 00:21:39.25 FRA (France)
35 8953 Patrice LILLONI Issy Triathlon V1 H 6 02:20:06.56 00:21:49.81 FRA (France)
36 9242 Nicolas BRUN SE H 30 02:20:16.83 00:22:00.08 FRA (France)
37 7879 Briac PHILIPPE SE H 31 02:20:25.00 00:22:08.25 FRA (France)
38 8566 Clément CROS Annonay triathlon SE H 32 02:20:32.88 00:22:16.13 FRA (France)
39 7385 Benjamin CLERE SE H 33 02:20:35.96 00:22:19.21 FRA (France)
40 8843 Gilles CHAFAR V2 H 1 02:20:45.17 00:22:28.42 FRA (France)
41 9215 Christophe BOUGERIE AGUISA TEAM V1 H 7 02:20:49.05 00:22:32.30 FRA (France)
42 8831 Fabien MUSSILLON SAM 12 SE H 34 02:21:07.34 00:22:50.59 FRA (France)
43 9094 Olivier OLLAGNIER V1 H 8 02:21:07.69 00:22:50.94 FRA (France)
44 6554 Thibaud LE PICARD SE H 35 02:21:20.04 00:23:03.29 FRA (France)
45 8992 Yves-Marie HERVAULT Team Trail Paris SE H 36 02:21:28.22 00:23:11.47 FRA (France)
46 6630 Philippe VILLEMIN V2 H 2 02:21:28.31 00:23:11.56 FRA (France)
47 6039 Jeffrey COULTER SE H 37 02:21:29.25 00:23:12.50 USA (Etats-Unis)
48 9008 Antoine DE STAEL Traileurs de Paris SE H 38 02:22:11.69 00:23:54.94 FRA (France)
49 6276 Mylène BACON I-RUN.FR SE F 1 02:23:09.00 00:24:52.25 FRA (France)
50 9084 Frederic BARBETTE V1 H 9 02:23:12.95 00:24:56.20 FRA (France)
51 6059 Simon MICHAUT RCF Issy Avia SE H 39 02:23:15.56 00:24:58.81 FRA (France)
52 9218 Leo TRIBEL Vertigo Club SE H 40 02:23:16.25 00:24:59.50 FRA (France)
53 6657 Christophe CORRE UA Versailles SE H 41 02:24:09.09 00:25:52.34 FRA (France)
54 8662 Maxime NORMANDIN Athlétisme Oléronais SE H 42 02:24:10.02 00:25:53.27 FRA (France)
55 7013 Lucas SEMBLAT LEVALLOIS TRIATHLON SE H 43 02:24:32.47 00:26:15.72 FRA (France)
56 6144 Alexandre PAGE VO2 Rives de Seine V1 H 10 02:24:34.15 00:26:17.40 FRA (France)
57 7615 Vincent FOURNIER SOHouilles SE H 44 02:24:46.10 00:26:29.35 FRA (France)
58 9085 Damien LEGRAND V1 H 11 02:25:11.83 00:26:55.08 FRA (France)
59 8845 Wilfried BOUZID SPODE SE H 45 02:25:18.37 00:27:01.62 FRA (France)
60 6516 Mathieu WARIN SE H 46 02:25:24.52 00:27:07.77 FRA (France)
61 8873 Arnaud BERNIGOLE Pessac Athletic Club SE H 47 02:25:27.58 00:27:10.83 FRA (France)
62 7038 Samuel CHAUMET SE H 48 02:25:40.15 00:27:23.40 FRA (France)
63 8778 Antoine METHOT AC BOURG-ST-ANDEOL PIERRELATTE SE H 49 02:26:12.78 00:27:56.03 FRA (France)
64 8316 Eric VASSEUR S/L ESME US DEUIL V1 H 12 02:26:28.04 00:28:11.29 FRA (France)
65 6921 Julien RIERA SE H 50 02:26:30.94 00:28:14.19 FRA (France)
66 7826 Robin UCELLI SE H 51 02:26:45.90 00:28:29.15 FRA (France)
67 8122 Nicholas WHITBECK SE H 52 02:26:46.95 00:28:30.20 FRA (France)
68 7074 Vincent FREYSSENGEAS SE H 53 02:26:51.05 00:28:34.30 FRA (France)
69 6385 Nicolas SCHERER V1 H 13 02:27:03.40 00:28:46.65 FRA (France)
70 9154 Arthur DUFFOUR SE H 54 02:27:10.54 00:28:53.79 FRA (France)
71 6914 Thomas SQUITIERO Team Trail Paris SE H 55 02:27:16.20 00:28:59.45 FRA (France)
72 7543 Paul BARONNET SE H 56 02:27:16.22 00:28:59.47 FRA (France)
73 9124 Thierry GROUES SE H 57 02:27:43.22 00:29:26.47 FRA (France)
74 6105 Olivier BOUTIN SE H 58 02:27:58.97 00:29:42.22 FRA (France)
75 7567 Philippe SIKORA V1 H 14 02:28:03.60 00:29:46.85 FRA (France)
76 7972 Caglar GIRIT SE H 59 02:28:28.07 00:30:11.32 GBR (Royaume-Uni)
77 7274 Antoine BONSERGENT V1 H 15 02:28:30.80 00:30:14.05 FRA (France)
78 9226 Simon VEYRET SE H 60 02:28:48.95 00:30:32.20 FRA (France)
79 8806 Denis SEGUY SE H 61 02:28:54.95 00:30:38.20 FRA (France)
80 6705 Bertrand CHARDENAL SE H 62 02:29:22.37 00:31:05.62 FRA (France)
81 8711 Aurélien SZTERN Meudon Triathlon V1 H 16 02:29:43.39 00:31:26.64 FRA (France)
82 7744 Jerome COROYER V1 H 17 02:29:47.52 00:31:30.77 FRA (France)
83 6925 Renaud DAVID-MOUGEL Clamart courses sur route 92 V2 H 3 02:30:04.89 00:31:48.14 FRA (France)
84 7735 Jérémie GUILLAUD SE H 63 02:30:07.51 00:31:50.76 FRA (France)
85 8805 Quentin SAVARY BA Coutances SE H 64 02:30:12.78 00:31:56.03 FRA (France)
86 7874 Benoit KIENE SE H 65 02:30:21.70 00:32:04.95 FRA (France)
87 6969 Vincent VALLADON Adidas runners paris SE H 66 02:30:42.23 00:32:25.48 FRA (France)
88 7706 Julien VANDOMME SE H 67 02:30:44.41 00:32:27.66 FRA (France)
89 7079 William TECHER SE H 68 02:30:54.57 00:32:37.82 FRA (France)
90 8051 Emmanuel LETAVERNIER V1 H 18 02:31:13.59 00:32:56.84 FRA (France)
91 6300 Gérald LUDON V1 H 19 02:31:15.99 00:32:59.24 FRA (France)
92 7952 Alessio MATTIUZZO SE H 69 02:31:42.00 00:33:25.25 ITA (Italie)
93 7977 Thomas HYDE SE H 70 02:31:43.00 00:33:26.25 GBR (Royaume-Uni)
94 8665 Nicolas METZGER SE H 71 02:31:46.00 00:33:29.25 FRA (France)
95 6691 Antoine FOSSALUZZA ISSY TRIATHLON SE H 72 02:31:46.49 00:33:29.74 FRA (France)
96 7214 Frederic MANGIN AO charenton V1 H 20 02:31:57.96 00:33:41.21 FRA (France)
97 8876 Ivan LEMAIRE V1 H 21 02:32:11.64 00:33:54.89 BEL (Belgique)
98 9093 Jean-Philippe RAVENIAUD V1 H 22 02:32:13.26 00:33:56.51 FRA (France)
99 9157 Christian FELICITE UA SOCIETE GENERALE V1 H 23 02:32:17.04 00:34:00.29 FRA (France)
100 8858 Alain NGUYEN V2 H 4 02:32:33.61 00:34:16.86 FRA (France)

 

Classement 18 KM 

1 13148 Pierre COSTINI Athletic Club 92 SE H 1 01:06:44 00:00:00 FRA (France)
2 12207 Anthony ROZALSKI SE H 2 01:07:39 00:00:55 FRA (France)
3 11413 Paul MATHOU Stade Laurentin Athletisme SE H 3 01:08:03 00:01:19 FRA (France)
4 13092 Vincent TURBIN SE H 4 01:11:17 00:04:33 FRA (France)
5 12840 Anthony ZARRA ANGLET FRANCE TRIATHLON V1 H 1 01:11:55 00:05:11 FRA (France)
6 11522 Quentin ROUSSEAU EPPG Triathlon 93 SE H 5 01:12:14 00:05:30 FRA (France)
7 11364 Victor HECKMANN Team Trail Paris SE H 6 01:12:20 00:05:36 FRA (France)
8 11502 Roméo BOISIVON trail session / esprit sports /galopins du cagire JU H 1 01:13:31 00:06:47 FRA (France)
9 13286 Simon CLOT Albi TRIATHLON ES H 1 01:13:32 00:06:48 FRA (France)
10 13346 Théo KLEIN SE H 7 01:13:41 00:06:57 FRA (France)
11 12393 Christophe BADARD V1 H 2 01:13:50 00:07:06 FRA (France)
12 13378 Benjamin SALAUN Running et marathon de bois d’arcy SE H 8 01:15:28 00:08:44 FRA (France)
13 12977 Cyril NABINEAU SE H 9 01:15:46 00:09:02 FRA (France)
14 12223 Maxime SAUVAGEON SE H 10 01:17:59 00:11:15 FRA (France)
15 13524 Benjamin FABRE MARC SE H 11 01:18:01 00:11:17 FRA (France)
16 12927 Loïc LEBOURG SE H 12 01:18:06 00:11:22 FRA (France)
17 11148 Aurelien BARBEY JU H 2 01:18:07 00:11:23 FRA (France)
18 11236 Antoine BOSQUET Xrun V1 H 3 01:18:26 00:11:42 FRA (France)
19 11561 Guillaume CHOLLET SE H 13 01:18:39 00:11:55 FRA (France)
20 12407 Pascal LABAT V2 H 1 01:18:51 00:12:07 FRA (France)
21 12933 Frederic THOMAS SE H 14 01:18:55 00:12:11 FRA (France)
22 12770 Arnaud LEFEBVRE RCF Issy Avia SE H 15 01:18:58 00:12:14 FRA (France)
23 11167 Jeremy DIEUDONNE Courbevoie Triathlon SE H 16 01:19:00 00:12:16 FRA (France)
24 11737 Xavier CHAUVET SE H 17 01:19:01 00:12:17 FRA (France)
25 13482 Guillaume DJENDEREDJIAN SE H 18 01:19:35 00:12:51 FRA (France)
26 12825 Alexandre LAPLANCHE SE H 19 01:19:54 00:13:10 FRA (France)
27 13551 Victor ROBIC COURBEVOIE TRIATHLON SE H 20 01:19:55 00:13:11 FRA (France)
28 12707 Yassine ABADA SE H 21 01:20:29 00:13:45 FRA (France)
29 12256 Bruno LE MILBEAU V2 H 2 01:20:48 00:14:04 FRA (France)
30 13086 Eve LE FLOC’H QUIMPER ATHLETISME SE F 1 01:20:59 00:14:15 FRA (France)
31 12710 Valentin BRUN AS MEUDON ES H 2 01:21:08 00:14:24 FRA (France)
32 12834 Flavien BARON FERRAND JU H 3 01:21:12 00:14:28 FRA (France)
33 12394 Alexis ARTHAUD V1 H 4 01:21:16 00:14:32 FRA (France)
34 12748 Baptiste FATOU Courbevoie Triathlon SE H 22 01:21:27 00:14:43 FRA (France)
35 12924 Arnaud JOUFFROY Stade Vertois Athlétisme V1 H 5 01:21:31 00:14:47 FRA (France)
36 13344 Cyril MASQUELIER SE H 23 01:21:58 00:15:14 FRA (France)
37 13559 Jerome BERNARD TEAM VIBRAM V1 H 6 01:22:15 00:15:31 FRA (France)
38 12839 Damien LEJEUNE Individuelle SE H 24 01:22:18 00:15:34 BEL (Belgique)
38 13590 Marie-Anne BIGOT Azur Olympique Charenton SE F 2 01:22:18 00:15:34 FRA (France)
40 13628 Stéphane LOUIS SE H 25 01:22:26 00:15:42 FRA (France)
41 11888 Marc GOLEGA SE H 26 01:22:57 00:16:13 FRA (France)
42 12123 Mathieu PEREIRA AR Sentier SE H 27 01:23:01 00:16:17 FRA (France)
43 11058 Jean-Baptiste PREZELIN TRIATHLON MEDIA CLUB SE H 28 01:23:05 00:16:21 FRA (France)
44 11464 Matthieu TANRET Stade Français Triathlon SE H 29 01:23:12 00:16:28 FRA (France)
45 12809 Fabien CRESPO Versailles Triathlon SE H 30 01:23:14 00:16:30 FRA (France)
46 11035 Maxime BERTRAND Clamart Courses sur Route 92 JU H 4 01:23:42 00:16:58 FRA (France)
47 11637 Arnaud PELLOIN V1 H 7 01:23:43 00:16:59 FRA (France)
48 12312 Antoine HUSSON SE H 31 01:24:37 00:17:53 FRA (France)
49 11273 Matthieu ANTOINE SE H 32 01:24:59 00:18:15 FRA (France)
50 12722 Benoit COMBES V1 H 8 01:25:25 00:18:41 FRA (France)
51 12814 Sébastien AMBOISE SE H 33 01:25:38 00:18:54 FRA (France)
52 12882 Nicolas MOREL SE H 34 01:25:40 00:18:56 FRA (France)
53 13476 Mehdi BAJULAZ SE H 35 01:25:59 00:19:15 FRA (France)
54 12878 Nicolas MORTIER SE H 36 01:26:05 00:19:21 FRA (France)
55 13460 Pascal BOMMEL V1 H 9 01:26:06 00:19:22 FRA (France)
56 12558 Jean-Claude GATARIGAMBA Club MultiSport Pantin SE H 37 01:26:14 00:19:30 FRA (France)
57 13142 Lionel CHATELARD Cmbm team BV sport V1 H 10 01:26:40 00:19:56 FRA (France)
58 11165 Etienne QUERAT UA-Versailles JU H 5 01:26:42 00:19:58 FRA (France)
59 11484 Stephane MAIRE SE H 38 01:26:54 00:20:10 FRA (France)
60 11412 Benjamin DUPUIS SE H 39 01:27:09 00:20:25 FRA (France)
61 11960 Guillaume VU SE H 40 01:27:14 00:20:30 FRA (France)
62 13428 Damien PALACCI V1 H 11 01:27:15 00:20:31 FRA (France)
63 11424 Florian SERRE SE H 41 01:27:19 00:20:35 FRA (France)
64 12414 Lucile CHAILLOUX SE F 3 01:27:21 00:20:37 FRA (France)
65 13638 Alban VERGNES SE H 42 01:27:28 00:20:44 FRA (France)
66 13508 James TROMEUR Team Trail Paris SE H 43 01:27:42 00:20:58 FRA (France)
67 13586 Oscar BARBIER SE H 44 01:27:43 00:20:59 FRA (France)
68 11975 Yann PIERENS V1 H 12 01:27:48 00:21:04 FRA (France)
69 13557 Hugo FAURE VERSAILLES TRI JU H 6 01:27:51 00:21:07 FRA (France)
69 13558 Thibaut KERHERVE VERSAILLES TRI V1 H 13 01:27:51 00:21:07 FRA (France)
71 11930 Jeffrey DORSEY SE H 45 01:27:59 00:21:15 FRA (France)
72 12905 Romain COUTELLIER SE H 46 01:28:04 00:21:20 FRA (France)
73 13562 Alexis CHEZE SE H 47 01:28:05 00:21:21 FRA (France)
74 11225 Guillaume MATHERAT SE H 48 01:28:30 00:21:46 FRA (France)
75 12730 Alexandre PLESSIS Courbevoie Triathlon SE H 49 01:28:46 00:22:02 FRA (France)
76 12593 Aurelie SAUVAGE SE F 4 01:28:47 00:22:03 FRA (France)
77 11923 Nicolas BERTRAND Athletic BrunoyClub V1 H 14 01:28:54 00:22:10 FRA (France)
78 13569 Corentin MOREL ISSY TRIATHLON SE H 50 01:28:55 00:22:11 FRA (France)
79 11690 Marina KUDLA V1 F 1 01:28:57 00:22:13 FRA (France)
80 13535 Lionel CAVALLIERE XRUN CLUB V2 H 3 01:29:21 00:22:37 FRA (France)
81 12599 Dominique VERNIER Free Runners Le Club V2 H 4 01:29:24 00:22:40 FRA (France)
82 13204 Erwan GUILLOUIC SE H 51 01:29:29 00:22:45 FRA (France)
83 13308 Guillaume GIGAUD SE H 52 01:29:33 00:22:49 FRA (France)
84 11220 Gregory VAN DEN PERRE V1 H 15 01:29:50 00:23:06 FRA (France)
85 12443 David MATHIEU Azur Olympique Charenton V2 H 5 01:29:58 00:23:14 FRA (France)
86 12649 Bruno BOURGEOIS REPUBLIQUE V2 H 6 01:29:59 00:23:15 FRA (France)
87 12916 Clément JEANNETEAU SE H 53 01:30:00 00:23:16 FRA (France)
88 13342 Rémi LAMBERT SE H 54 01:30:18 00:23:34 FRA (France)
89 13062 Victor Bruno BOURJAL V2 H 7 01:30:19 00:23:35 FRA (France)
89 13111 Anne BOUCHAREL COURBEVOIE TRIATHLON V1 F 2 01:30:19 00:23:35 FRA (France)
91 11216 Hugo GARROS Les Front Runners de Paris SE H 55 01:30:20 00:23:36 FRA (France)
92 12042 Emmanuel COLTAT SE H 56 01:30:30 00:23:46 FRA (France)
93 13328 Matthieu PENVEN SE H 57 01:30:32 00:23:48 FRA (France)
94 12224 Mikael ARNAUD TOBESPORT V1 H 16 01:30:36 00:23:52 FRA (France)
95 12073 Clément SALAIS V1 H 17 01:30:50 00:24:06 FRA (France)
96 12117 Vincent TORRENT SE H 58 01:30:54 00:24:10 FRA (France)
97 11354 Didier BONNET V1 H 18 01:31:04 00:24:20 FRA (France)
98 11452 Anne-Sophie ROUX V1 F 3 01:31:07 00:24:23 FRA (France)
99 13519 Alexander CHIDLEY SE H 59 01:31:08 00:24:24 GBR (Royaume-Uni)
100 12205 Abdessamad DAANOUN SE H 60 01:31:09 00:24:25 FRA (France)

 

 Les classements complets

Réagissez